createdAt,value
2023-02-02T00:00:01.000Z,3.07
2023-02-02T00:01:01.000Z,3.13
2023-02-02T00:02:01.000Z,3.12
2023-02-02T00:03:01.000Z,3.13
2023-02-02T00:04:01.000Z,3.12
2023-02-02T00:05:01.000Z,3.13
2023-02-02T00:06:01.000Z,3.13
2023-02-02T00:07:01.000Z,3.10
2023-02-02T00:08:01.000Z,3.07
2023-02-02T00:09:01.000Z,3.10
2023-02-02T00:10:01.000Z,3.07
2023-02-02T00:11:01.000Z,3.05
2023-02-02T00:12:01.000Z,3.06
2023-02-02T00:13:01.000Z,3.10
2023-02-02T00:14:01.000Z,3.07
2023-02-02T00:15:01.000Z,3.07
2023-02-02T00:16:01.000Z,3.06
2023-02-02T00:17:01.000Z,3.07
2023-02-02T00:18:01.000Z,3.07
2023-02-02T00:19:01.000Z,3.06
2023-02-02T00:20:01.000Z,3.09
2023-02-02T00:21:01.000Z,3.10
2023-02-02T00:22:01.000Z,3.09
2023-02-02T00:23:01.000Z,3.13
2023-02-02T00:24:01.000Z,3.10
2023-02-02T00:25:01.000Z,3.13
2023-02-02T00:26:01.000Z,3.12
2023-02-02T00:27:01.000Z,3.15
2023-02-02T00:28:01.000Z,3.13
2023-02-02T00:29:01.000Z,3.16
2023-02-02T00:30:01.000Z,3.18
2023-02-02T00:31:01.000Z,3.20
2023-02-02T00:32:01.000Z,3.24
2023-02-02T00:33:01.000Z,3.28
2023-02-02T00:34:01.000Z,3.27
2023-02-02T00:35:01.000Z,3.30
2023-02-02T00:36:01.000Z,3.23
2023-02-02T00:37:01.000Z,3.20
2023-02-02T00:38:01.000Z,3.21
2023-02-02T00:39:01.000Z,3.25
2023-02-02T00:40:01.000Z,3.25
2023-02-02T00:41:01.000Z,3.25
2023-02-02T00:42:01.000Z,3.27
2023-02-02T00:43:01.000Z,3.28
2023-02-02T00:44:01.000Z,3.31
2023-02-02T00:45:01.000Z,3.28
2023-02-02T00:46:01.000Z,3.27
2023-02-02T00:47:01.000Z,3.31
2023-02-02T00:48:01.000Z,3.28
2023-02-02T00:49:01.000Z,3.30
2023-02-02T00:50:01.000Z,3.28
2023-02-02T00:51:01.000Z,3.30
2023-02-02T00:52:01.000Z,3.30
2023-02-02T00:53:01.000Z,3.30
2023-02-02T00:54:01.000Z,3.31
2023-02-02T00:55:01.000Z,3.34
2023-02-02T00:56:01.000Z,3.34
2023-02-02T00:57:01.000Z,3.30
2023-02-02T00:58:01.000Z,3.30
2023-02-02T00:59:01.000Z,3.34
2023-02-02T01:00:01.000Z,3.33
2023-02-02T01:01:01.000Z,3.39
2023-02-02T01:02:01.000Z,3.42
2023-02-02T01:03:01.000Z,3.36
2023-02-02T01:04:01.000Z,3.36
2023-02-02T01:11:19.000Z,3.34
2023-02-02T01:11:19.000Z,3.33
2023-02-02T01:12:19.000Z,3.40
2023-02-02T01:13:19.000Z,3.34
2023-02-02T01:14:19.000Z,3.40
2023-02-02T01:15:19.000Z,3.39
2023-02-02T01:16:19.000Z,3.34
2023-02-02T01:17:19.000Z,3.34
2023-02-02T01:18:19.000Z,3.34
2023-02-02T01:19:19.000Z,3.36
2023-02-02T01:20:19.000Z,3.33
2023-02-02T01:21:19.000Z,3.33
2023-02-02T01:22:19.000Z,3.33
2023-02-02T01:23:19.000Z,3.40
2023-02-02T01:24:19.000Z,3.40
2023-02-02T01:36:54.000Z,3.54
2023-02-02T01:36:54.000Z,3.53
2023-02-02T01:37:54.000Z,3.49
2023-02-02T01:38:54.000Z,3.50
2023-02-02T01:39:54.000Z,3.47
2023-02-02T01:40:54.000Z,3.47
2023-02-02T01:41:54.000Z,3.43
2023-02-02T01:42:54.000Z,3.47
2023-02-02T01:43:54.000Z,3.46
2023-02-02T01:44:54.000Z,3.47
2023-02-02T01:45:54.000Z,3.49
2023-02-02T01:46:54.000Z,3.44
2023-02-02T01:47:54.000Z,3.44
2023-02-02T01:48:54.000Z,3.43
2023-02-02T01:49:54.000Z,3.39
2023-02-02T01:50:54.000Z,3.42
2023-02-02T01:51:54.000Z,3.36
2023-02-02T01:52:54.000Z,3.33
2023-02-02T01:53:54.000Z,3.39
2023-02-02T01:54:54.000Z,3.34
2023-02-02T01:55:54.000Z,3.30
2023-02-02T01:56:54.000Z,3.28
2023-02-02T01:57:54.000Z,3.31
2023-02-02T01:58:54.000Z,3.30
2023-02-02T01:59:54.000Z,3.25
2023-02-02T02:00:54.000Z,3.25
2023-02-02T02:01:54.000Z,3.30
2023-02-02T02:02:54.000Z,3.31
2023-02-02T02:03:54.000Z,3.28
2023-02-02T02:04:54.000Z,3.30
2023-02-02T02:05:54.000Z,3.28
2023-02-02T02:06:54.000Z,3.27
2023-02-02T02:07:54.000Z,3.28
2023-02-02T02:08:54.000Z,3.27
2023-02-02T02:09:54.000Z,3.25
2023-02-02T02:10:54.000Z,3.25
2023-02-02T02:11:54.000Z,3.27
2023-02-02T02:12:54.000Z,3.27
2023-02-02T02:13:54.000Z,3.33
2023-02-02T02:14:54.000Z,3.31
2023-02-02T02:15:54.000Z,3.34
2023-02-02T02:16:54.000Z,3.36
2023-02-02T02:17:54.000Z,3.39
2023-02-02T02:18:54.000Z,3.39
2023-02-02T02:19:54.000Z,3.40
2023-02-02T02:32:30.000Z,3.57
2023-02-02T02:32:30.000Z,3.57
2023-02-02T02:33:30.000Z,3.53
2023-02-02T02:34:30.000Z,3.53
2023-02-02T02:35:30.000Z,3.57
2023-02-02T02:36:30.000Z,3.60
2023-02-02T02:37:30.000Z,3.61
2023-02-02T02:38:30.000Z,3.61
2023-02-02T02:39:30.000Z,3.61
2023-02-02T02:40:30.000Z,3.61
2023-02-02T02:47:47.000Z,3.76
2023-02-02T02:47:47.000Z,3.72
2023-02-02T02:48:47.000Z,3.71
2023-02-02T02:49:47.000Z,3.72
2023-02-02T02:50:47.000Z,3.72
2023-02-02T02:51:47.000Z,3.71
2023-02-02T02:52:47.000Z,3.72
2023-02-02T02:53:47.000Z,3.76
2023-02-02T02:54:47.000Z,3.75
2023-02-02T02:55:47.000Z,3.79
2023-02-02T03:03:06.000Z,3.72
2023-02-02T03:03:06.000Z,3.76
2023-02-02T03:04:06.000Z,3.78
2023-02-02T03:05:06.000Z,3.71
2023-02-02T03:06:06.000Z,3.71
2023-02-02T03:19:41.000Z,3.62
2023-02-02T03:19:41.000Z,3.60
2023-02-02T03:20:41.000Z,3.61
2023-02-02T03:21:41.000Z,3.61
2023-02-02T03:35:16.000Z,3.61
2023-02-02T03:35:16.000Z,3.60
2023-02-02T03:36:16.000Z,3.57
2023-02-02T03:37:16.000Z,3.60
2023-02-02T03:44:34.000Z,3.58
2023-02-02T03:44:34.000Z,3.54
2023-02-02T03:45:34.000Z,3.57
2023-02-02T03:46:34.000Z,3.53
2023-02-02T03:47:34.000Z,3.57
2023-02-02T03:48:34.000Z,3.60
2023-02-02T03:49:34.000Z,3.60
2023-02-02T03:50:34.000Z,3.57
2023-02-02T03:51:34.000Z,3.57
2023-02-02T03:52:34.000Z,3.58
2023-02-02T03:53:34.000Z,3.60
2023-02-02T03:54:34.000Z,3.60
2023-02-02T03:55:34.000Z,3.62
2023-02-02T03:56:34.000Z,3.60
2023-02-02T03:57:34.000Z,3.62
2023-02-02T03:58:34.000Z,3.54
2023-02-02T03:59:34.000Z,3.54
2023-02-02T04:00:34.000Z,3.57
2023-02-02T04:01:34.000Z,3.54
2023-02-02T04:02:34.000Z,3.52
2023-02-02T04:09:52.000Z,3.36
2023-02-02T04:09:52.000Z,3.34
2023-02-02T04:10:52.000Z,3.36
2023-02-02T04:11:52.000Z,3.39
2023-02-02T04:12:52.000Z,3.34
2023-02-02T04:20:10.000Z,3.30
2023-02-02T04:20:10.000Z,3.27
2023-02-02T04:21:10.000Z,3.30
2023-02-02T04:22:10.000Z,3.30
2023-02-02T04:23:10.000Z,3.33
2023-02-02T04:30:28.000Z,3.39
2023-02-02T04:30:28.000Z,3.40
2023-02-02T04:31:28.000Z,3.36
2023-02-02T04:32:28.000Z,3.36
2023-02-02T04:33:28.000Z,3.40
2023-02-02T04:34:28.000Z,3.39
2023-02-02T04:35:28.000Z,3.39
2023-02-02T04:36:28.000Z,3.34
2023-02-02T04:37:28.000Z,3.34
2023-02-02T04:38:28.000Z,3.33
2023-02-02T04:39:28.000Z,3.31
2023-02-02T04:40:28.000Z,3.25
2023-02-02T04:41:28.000Z,3.27
2023-02-02T04:42:28.000Z,3.31
2023-02-02T04:43:28.000Z,3.27
2023-02-02T04:50:45.000Z,3.30
2023-02-02T04:50:45.000Z,3.30
2023-02-02T04:51:45.000Z,3.33
2023-02-02T04:52:45.000Z,3.30
2023-02-02T04:53:45.000Z,3.27
2023-02-02T04:54:45.000Z,3.30
2023-02-02T04:55:45.000Z,3.24
2023-02-02T04:56:45.000Z,3.27
2023-02-02T04:57:45.000Z,3.21
2023-02-02T04:58:45.000Z,3.20
2023-02-02T04:59:45.000Z,3.15
2023-02-02T05:00:45.000Z,3.12
2023-02-02T05:01:45.000Z,3.10
2023-02-02T05:02:45.000Z,3.06
2023-02-02T05:03:45.000Z,2.97
2023-02-02T05:11:03.000Z,2.84
2023-02-02T05:11:03.000Z,2.76
2023-02-02T05:12:03.000Z,2.76
2023-02-02T05:13:03.000Z,2.73
2023-02-02T05:14:03.000Z,2.73
2023-02-02T05:15:03.000Z,2.73
2023-02-02T05:16:03.000Z,2.79
2023-02-02T05:17:03.000Z,2.74
2023-02-02T05:18:03.000Z,2.79
2023-02-02T05:19:03.000Z,2.76
2023-02-02T05:20:03.000Z,2.79
2023-02-02T05:21:03.000Z,2.85
2023-02-02T05:22:03.000Z,2.84
2023-02-02T05:23:03.000Z,2.88
2023-02-02T05:24:03.000Z,2.89
2023-02-02T05:25:03.000Z,2.91
2023-02-02T05:26:03.000Z,2.98
2023-02-02T05:27:03.000Z,3.02
2023-02-02T05:28:03.000Z,3.05
2023-02-02T05:29:03.000Z,3.05
2023-02-02T05:30:03.000Z,3.02
2023-02-02T05:31:03.000Z,3.00
2023-02-02T05:32:03.000Z,3.05
2023-02-02T05:33:03.000Z,3.06
2023-02-02T05:34:03.000Z,3.12
2023-02-02T05:35:03.000Z,3.21
2023-02-02T05:36:03.000Z,3.30
2023-02-02T05:37:03.000Z,3.39
2023-02-02T05:38:03.000Z,3.52
2023-02-02T05:39:03.000Z,3.60
2023-02-02T05:40:03.000Z,3.70
2023-02-02T05:41:03.000Z,3.75
2023-02-02T05:42:03.000Z,3.70
2023-02-02T05:43:03.000Z,3.70
2023-02-02T05:44:03.000Z,3.72
2023-02-02T05:45:03.000Z,3.75
2023-02-02T05:46:03.000Z,3.79
2023-02-02T05:47:03.000Z,3.86
2023-02-02T05:48:03.000Z,3.97
2023-02-02T05:49:03.000Z,4.01
2023-02-02T05:50:03.000Z,4.01
2023-02-02T05:51:03.000Z,4.03
2023-02-02T05:52:03.000Z,4.00
2023-02-02T05:53:03.000Z,4.06
2023-02-02T05:54:03.000Z,4.10
2023-02-02T05:55:03.000Z,4.10
2023-02-02T05:56:03.000Z,4.08
2023-02-02T05:57:03.000Z,4.07
2023-02-02T05:58:03.000Z,4.08
2023-02-02T05:59:03.000Z,4.15
2023-02-02T06:00:03.000Z,4.22
2023-02-02T06:01:03.000Z,4.29
2023-02-02T06:02:03.000Z,4.34
2023-02-02T06:03:03.000Z,4.33
2023-02-02T06:04:03.000Z,4.29
2023-02-02T06:05:03.000Z,4.29
2023-02-02T06:06:03.000Z,4.32
2023-02-02T06:07:03.000Z,4.28
2023-02-02T06:08:03.000Z,4.26
2023-02-02T06:09:03.000Z,4.24
2023-02-02T06:10:03.000Z,4.19
2023-02-02T06:11:03.000Z,4.22
2023-02-02T06:12:03.000Z,4.16
2023-02-02T06:13:03.000Z,4.14
2023-02-02T06:14:03.000Z,4.10
2023-02-02T06:15:03.000Z,4.12
2023-02-02T06:16:03.000Z,4.16
2023-02-02T06:17:03.000Z,4.25
2023-02-02T06:18:03.000Z,4.36
2023-02-02T06:19:03.000Z,4.34
2023-02-02T06:20:03.000Z,4.36
2023-02-02T06:21:03.000Z,4.34
2023-02-02T06:22:03.000Z,4.34
2023-02-02T06:23:03.000Z,4.33
2023-02-02T06:24:03.000Z,4.28
2023-02-02T06:25:03.000Z,4.25
2023-02-02T06:26:03.000Z,4.22
2023-02-02T06:27:03.000Z,4.26
2023-02-02T06:28:03.000Z,4.24
2023-02-02T06:29:03.000Z,4.28
2023-02-02T06:30:03.000Z,4.28
2023-02-02T06:31:03.000Z,4.26
2023-02-02T06:32:03.000Z,4.28
2023-02-02T06:33:03.000Z,4.28
2023-02-02T06:34:03.000Z,4.29
2023-02-02T06:35:03.000Z,4.26
2023-02-02T06:36:03.000Z,4.36
2023-02-02T06:37:03.000Z,4.40
2023-02-02T06:38:03.000Z,4.36
2023-02-02T06:39:03.000Z,4.32
2023-02-02T06:40:03.000Z,4.34
2023-02-02T06:41:03.000Z,4.34
2023-02-02T06:42:03.000Z,4.33
2023-02-02T06:43:03.000Z,4.32
2023-02-02T06:44:03.000Z,4.32
2023-02-02T06:45:03.000Z,4.37
2023-02-02T06:46:03.000Z,4.39
2023-02-02T06:47:03.000Z,4.40
2023-02-02T06:48:03.000Z,4.36
2023-02-02T06:49:03.000Z,4.36
2023-02-02T06:50:03.000Z,4.33
2023-02-02T06:51:03.000Z,4.39
2023-02-02T06:52:03.000Z,4.39
2023-02-02T06:53:03.000Z,4.33
2023-02-02T06:54:03.000Z,4.42
2023-02-02T06:55:03.000Z,4.37
2023-02-02T06:56:03.000Z,4.33
2023-02-02T06:57:03.000Z,4.33
2023-02-02T06:58:03.000Z,4.28
2023-02-02T06:59:03.000Z,4.24
2023-02-02T07:00:03.000Z,4.26
2023-02-02T07:01:03.000Z,4.33
2023-02-02T07:02:03.000Z,4.26
2023-02-02T07:03:03.000Z,4.28
2023-02-02T07:04:03.000Z,4.33
2023-02-02T07:05:03.000Z,4.37
2023-02-02T07:06:03.000Z,4.42
2023-02-02T07:07:03.000Z,4.40
2023-02-02T07:08:03.000Z,4.46
2023-02-02T07:09:03.000Z,4.42
2023-02-02T07:21:39.000Z,4.59
2023-02-02T07:21:39.000Z,4.57
2023-02-02T07:22:39.000Z,4.50
2023-02-02T07:23:39.000Z,4.47
2023-02-02T07:24:39.000Z,4.46
2023-02-02T07:25:39.000Z,4.40
2023-02-02T07:26:39.000Z,4.42
2023-02-02T07:27:39.000Z,4.42
2023-02-02T07:28:39.000Z,4.40
2023-02-02T07:29:39.000Z,4.44
2023-02-02T07:30:39.000Z,4.40
2023-02-02T07:31:39.000Z,4.44
2023-02-02T07:32:39.000Z,4.43
2023-02-02T07:33:39.000Z,4.43
2023-02-02T07:34:39.000Z,4.40
2023-02-02T07:35:39.000Z,4.51
2023-02-02T07:36:39.000Z,4.52
2023-02-02T07:37:39.000Z,4.52
2023-02-02T07:38:39.000Z,4.57
2023-02-02T07:39:39.000Z,4.55
2023-02-02T07:40:39.000Z,4.57
2023-02-02T07:41:39.000Z,4.58
2023-02-02T07:42:39.000Z,4.54
2023-02-02T07:43:39.000Z,4.59
2023-02-02T07:44:39.000Z,4.58
2023-02-02T07:45:39.000Z,4.61
2023-02-02T07:46:39.000Z,4.67
2023-02-02T07:47:39.000Z,4.70
2023-02-02T07:48:39.000Z,4.70
2023-02-02T07:49:39.000Z,4.75
2023-02-02T07:50:39.000Z,4.73
2023-02-02T07:51:39.000Z,4.79
2023-02-02T07:52:39.000Z,4.77
2023-02-02T07:53:39.000Z,4.79
2023-02-02T07:54:38.000Z,4.77
2023-02-02T08:07:14.000Z,4.79
2023-02-02T08:07:14.000Z,4.79
2023-02-02T08:08:14.000Z,4.84
2023-02-02T08:09:14.000Z,4.80
2023-02-02T08:10:14.000Z,4.83
2023-02-02T08:11:14.000Z,4.83
2023-02-02T08:12:14.000Z,4.86
2023-02-02T08:13:14.000Z,4.83
2023-02-02T08:14:14.000Z,4.88
2023-02-02T08:15:14.000Z,4.84
2023-02-02T08:45:42.000Z,5.19
2023-02-02T08:45:42.000Z,5.17
2023-02-02T08:45:42.000Z,5.19
2023-02-02T08:45:42.000Z,5.17
2023-02-02T08:46:42.000Z,5.19
2023-02-02T08:46:42.000Z,5.19
2023-02-02T08:47:42.000Z,5.22
2023-02-02T08:48:42.000Z,5.22
2023-02-02T08:49:42.000Z,5.23
2023-02-02T08:50:42.000Z,5.20
2023-02-02T08:51:42.000Z,5.23
2023-02-02T08:52:42.000Z,5.22
2023-02-02T08:53:42.000Z,5.28
2023-02-02T08:54:42.000Z,5.27
2023-02-02T08:55:42.000Z,5.27
2023-02-02T08:56:42.000Z,5.27
2023-02-02T09:03:59.000Z,5.32
2023-02-02T09:03:59.000Z,5.32
2023-02-02T09:04:59.000Z,5.37
2023-02-02T09:05:59.000Z,5.37
2023-02-02T09:06:59.000Z,5.37
2023-02-02T09:07:59.000Z,5.40
2023-02-02T09:08:59.000Z,5.35
2023-02-02T09:09:59.000Z,5.35
2023-02-02T09:10:59.000Z,5.41
2023-02-02T09:11:59.000Z,5.43
2023-02-02T09:12:59.000Z,5.46
2023-02-02T09:13:59.000Z,5.41
2023-02-02T09:14:59.000Z,5.43
2023-02-02T09:15:59.000Z,5.43
2023-02-02T09:16:59.000Z,5.46
2023-02-02T09:17:59.000Z,5.48
2023-02-02T09:18:59.000Z,5.48
2023-02-02T09:19:59.000Z,5.45
2023-02-02T09:20:59.000Z,5.48
2023-02-02T09:21:59.000Z,5.49
2023-02-02T09:22:59.000Z,5.52
2023-02-02T09:23:59.000Z,5.50
2023-02-02T09:24:59.000Z,5.50
2023-02-02T09:25:59.000Z,5.53
2023-02-02T09:26:59.000Z,5.50
2023-02-02T09:27:59.000Z,5.48
2023-02-02T09:28:59.000Z,5.53
2023-02-02T09:29:59.000Z,5.56
2023-02-02T09:30:59.000Z,5.56
2023-02-02T09:31:59.000Z,5.60
2023-02-02T09:32:59.000Z,5.63
2023-02-02T09:33:59.000Z,5.64
2023-02-02T09:34:59.000Z,5.67
2023-02-02T09:35:59.000Z,5.70
2023-02-02T09:36:59.000Z,5.71
2023-02-02T09:37:59.000Z,5.75
2023-02-02T09:38:59.000Z,5.75
2023-02-02T09:39:59.000Z,5.77
2023-02-02T09:40:59.000Z,5.81
2023-02-02T09:41:59.000Z,5.78
2023-02-02T09:42:59.000Z,5.81
2023-02-02T09:43:59.000Z,5.77
2023-02-02T09:44:59.000Z,5.78
2023-02-02T09:45:59.000Z,5.78
2023-02-02T09:46:59.000Z,5.81
2023-02-02T09:47:59.000Z,5.78
2023-02-02T09:48:59.000Z,5.77
2023-02-02T09:49:59.000Z,5.77
2023-02-02T09:50:58.000Z,5.81
2023-02-02T09:51:58.000Z,5.82
2023-02-02T09:54:16.000Z,5.81
2023-02-02T09:54:16.000Z,5.77
2023-02-02T09:55:16.000Z,5.78
2023-02-02T09:56:16.000Z,5.81
2023-02-02T09:57:15.000Z,5.83
2023-02-02T09:58:15.000Z,5.83
2023-02-02T09:59:15.000Z,5.82
2023-02-02T10:00:15.000Z,5.85
2023-02-02T10:01:15.000Z,5.86
2023-02-02T10:02:15.000Z,5.89
2023-02-02T10:03:15.000Z,5.93
2023-02-02T10:03:15.000Z,5.93
2023-02-02T10:04:15.000Z,5.92
2023-02-02T10:04:15.000Z,5.92
2023-02-02T10:05:15.000Z,5.95
2023-02-02T10:05:15.000Z,5.95
2023-02-02T10:06:15.000Z,5.95
2023-02-02T10:06:15.000Z,5.95
2023-02-02T10:07:15.000Z,6.00
2023-02-02T10:07:15.000Z,6.00
2023-02-02T10:08:15.000Z,5.98
2023-02-02T10:09:15.000Z,5.98
2023-02-02T10:10:15.000Z,6.09
2023-02-02T10:11:15.000Z,6.09
2023-02-02T10:12:15.000Z,6.13
2023-02-02T10:13:15.000Z,6.16
2023-02-02T10:14:15.000Z,6.13
2023-02-02T10:15:15.000Z,6.14
2023-02-02T10:16:15.000Z,6.19
2023-02-02T10:17:15.000Z,6.18
2023-02-02T10:18:15.000Z,6.22
2023-02-02T10:19:15.000Z,6.26
2023-02-02T10:20:15.000Z,6.22
2023-02-02T10:21:15.000Z,6.22
2023-02-02T10:22:15.000Z,6.19
2023-02-02T10:23:15.000Z,6.16
2023-02-02T10:24:15.000Z,6.18
2023-02-02T10:25:15.000Z,6.26
2023-02-02T10:26:15.000Z,6.22
2023-02-02T10:27:15.000Z,6.22
2023-02-02T10:28:15.000Z,6.22
2023-02-02T10:29:15.000Z,6.30
2023-02-02T10:30:15.000Z,6.33
2023-02-02T10:31:15.000Z,6.35
2023-02-02T10:32:15.000Z,6.33
2023-02-02T10:33:15.000Z,6.38
2023-02-02T10:34:15.000Z,6.38
2023-02-02T10:35:15.000Z,6.35
2023-02-02T10:36:15.000Z,6.36
2023-02-02T10:37:15.000Z,6.36
2023-02-02T10:38:15.000Z,6.30
2023-02-02T10:39:15.000Z,6.35
2023-02-02T10:40:15.000Z,6.32
2023-02-02T10:41:14.000Z,6.33
2023-02-02T10:42:14.000Z,6.36
2023-02-02T10:43:14.000Z,6.36
2023-02-02T10:44:14.000Z,6.36
2023-02-02T10:45:14.000Z,6.35
2023-02-02T10:46:14.000Z,6.32
2023-02-02T10:47:14.000Z,6.29
2023-02-02T10:48:14.000Z,6.32
2023-02-02T10:49:14.000Z,6.28
2023-02-02T10:50:14.000Z,6.22
2023-02-02T10:51:14.000Z,6.22
2023-02-02T10:52:14.000Z,6.22
2023-02-02T10:53:14.000Z,6.21
2023-02-02T10:54:14.000Z,6.18
2023-02-02T10:55:14.000Z,6.13
2023-02-02T10:56:14.000Z,6.13
2023-02-02T10:57:14.000Z,6.13
2023-02-02T10:58:14.000Z,6.09
2023-02-02T10:59:14.000Z,6.09
2023-02-02T11:00:14.000Z,6.07
2023-02-02T11:01:14.000Z,6.07
2023-02-02T11:02:14.000Z,6.06
2023-02-02T11:03:14.000Z,6.07
2023-02-02T11:04:14.000Z,6.06
2023-02-02T11:05:14.000Z,6.03
2023-02-02T11:06:14.000Z,6.04
2023-02-02T11:07:14.000Z,6.03
2023-02-02T11:08:14.000Z,6.03
2023-02-02T11:09:14.000Z,6.04
2023-02-02T11:10:14.000Z,6.04
2023-02-02T11:11:14.000Z,6.07
2023-02-02T11:12:14.000Z,6.09
2023-02-02T11:19:32.000Z,6.19
2023-02-02T11:19:32.000Z,6.18
2023-02-02T11:20:32.000Z,6.22
2023-02-02T11:21:32.000Z,6.25
2023-02-02T11:22:32.000Z,6.30
2023-02-02T11:23:32.000Z,6.30
2023-02-02T11:24:31.000Z,6.41
2023-02-02T11:25:31.000Z,6.50
2023-02-02T11:26:31.000Z,6.54
2023-02-02T11:27:31.000Z,6.59
2023-02-02T11:56:00.000Z,6.00
2023-02-02T11:56:00.000Z,6.10
2023-02-02T11:57:00.000Z,5.93
2023-02-02T11:58:00.000Z,5.91
2023-02-02T11:59:00.000Z,5.86
2023-02-02T12:06:17.000Z,5.68
2023-02-02T12:06:17.000Z,5.70
2023-02-02T12:07:17.000Z,5.67
2023-02-02T12:08:17.000Z,5.78
2023-02-02T12:09:17.000Z,5.85
2023-02-02T12:10:17.000Z,5.85
2023-02-02T12:11:17.000Z,5.86
2023-02-02T12:12:17.000Z,5.93
2023-02-02T12:13:17.000Z,5.96
2023-02-02T12:14:17.000Z,6.03
2023-02-02T12:15:17.000Z,6.09
2023-02-02T12:16:17.000Z,6.13
2023-02-02T12:17:17.000Z,6.22
2023-02-02T12:18:17.000Z,6.29
2023-02-02T12:19:17.000Z,6.38
2023-02-02T12:20:17.000Z,6.41
2023-02-02T12:21:17.000Z,6.43
2023-02-02T12:22:17.000Z,6.53
2023-02-02T12:23:17.000Z,6.63
2023-02-02T12:24:17.000Z,6.73
2023-02-02T12:25:17.000Z,6.83
2023-02-02T12:26:17.000Z,6.90
2023-02-02T12:27:17.000Z,6.91
2023-02-02T12:28:17.000Z,6.90
2023-02-02T12:29:17.000Z,7.04
2023-02-02T12:30:17.000Z,7.04
2023-02-02T12:31:17.000Z,7.01
2023-02-02T12:32:17.000Z,6.97
2023-02-02T12:33:17.000Z,6.99
2023-02-02T12:34:17.000Z,6.97
2023-02-02T12:35:17.000Z,6.90
2023-02-02T12:36:17.000Z,6.90
2023-02-02T12:37:17.000Z,6.87
2023-02-02T12:38:17.000Z,6.84
2023-02-02T12:39:17.000Z,6.79
2023-02-02T12:40:17.000Z,6.81
2023-02-02T12:41:17.000Z,6.72
2023-02-02T12:42:17.000Z,6.69
2023-02-02T12:43:17.000Z,6.62
2023-02-02T12:44:17.000Z,6.59
2023-02-02T12:45:17.000Z,6.54
2023-02-02T12:46:17.000Z,6.44
2023-02-02T12:47:17.000Z,6.43
2023-02-02T12:48:17.000Z,6.33
2023-02-02T12:49:17.000Z,6.28
2023-02-02T12:50:17.000Z,6.22
2023-02-02T12:51:17.000Z,6.16
2023-02-02T12:52:17.000Z,6.16
2023-02-02T12:53:17.000Z,6.13
2023-02-02T12:54:17.000Z,6.11
2023-02-02T12:55:17.000Z,6.13
2023-02-02T12:56:17.000Z,6.10
2023-02-02T12:57:17.000Z,6.16
2023-02-02T12:58:17.000Z,6.18
2023-02-02T12:59:17.000Z,6.19
2023-02-02T13:00:17.000Z,6.22
2023-02-02T13:01:17.000Z,6.22
2023-02-02T13:02:17.000Z,6.18
2023-02-02T13:03:17.000Z,6.21
2023-02-02T13:04:17.000Z,6.25
2023-02-02T13:05:17.000Z,6.28
2023-02-02T13:06:17.000Z,6.26
2023-02-02T13:07:17.000Z,6.26
2023-02-02T13:08:17.000Z,6.22
2023-02-02T13:09:18.000Z,6.21
2023-02-02T13:10:18.000Z,6.21
2023-02-02T13:11:18.000Z,6.21
2023-02-02T13:12:18.000Z,6.22
2023-02-02T13:13:18.000Z,6.21
2023-02-02T13:14:18.000Z,6.22
2023-02-02T13:15:18.000Z,6.21
2023-02-02T13:16:18.000Z,6.18
2023-02-02T13:17:18.000Z,6.19
2023-02-02T13:18:18.000Z,6.18
2023-02-02T13:19:18.000Z,6.22
2023-02-02T13:20:18.000Z,6.22
2023-02-02T13:21:18.000Z,6.28
2023-02-02T13:22:18.000Z,6.29
2023-02-02T13:23:18.000Z,6.30
2023-02-02T13:24:18.000Z,6.33
2023-02-02T13:25:18.000Z,6.32
2023-02-02T13:26:18.000Z,6.29
2023-02-02T13:27:18.000Z,6.36
2023-02-02T13:28:18.000Z,6.38
2023-02-02T13:29:18.000Z,6.38
2023-02-02T13:30:18.000Z,6.40
2023-02-02T13:31:18.000Z,6.41
2023-02-02T13:32:18.000Z,6.35
2023-02-02T13:33:18.000Z,6.41
2023-02-02T13:34:18.000Z,6.32
2023-02-02T13:35:18.000Z,6.32
2023-02-02T13:36:18.000Z,6.26
2023-02-02T13:37:18.000Z,6.22
2023-02-02T13:38:18.000Z,6.21
2023-02-02T13:39:18.000Z,6.18
2023-02-02T13:40:18.000Z,6.10
2023-02-02T13:41:18.000Z,6.09
2023-02-02T13:42:18.000Z,6.04
2023-02-02T13:43:18.000Z,6.00
2023-02-02T13:44:18.000Z,5.98
2023-02-02T13:45:18.000Z,5.96
2023-02-02T13:46:18.000Z,5.92
2023-02-02T13:47:18.000Z,5.93
2023-02-02T13:48:18.000Z,5.91
2023-02-02T13:49:18.000Z,5.89
2023-02-02T13:50:18.000Z,5.88
2023-02-02T13:51:18.000Z,5.86
2023-02-02T13:52:18.000Z,5.85
2023-02-02T13:53:18.000Z,5.85
2023-02-02T13:54:18.000Z,5.86
2023-02-02T13:55:18.000Z,5.82
2023-02-02T13:56:18.000Z,5.83
2023-02-02T13:57:18.000Z,5.81
2023-02-02T13:58:19.000Z,5.82
2023-02-02T13:59:19.000Z,5.78
2023-02-02T14:00:19.000Z,5.75
2023-02-02T14:01:19.000Z,5.71
2023-02-02T14:02:19.000Z,5.73
2023-02-02T14:03:19.000Z,5.71
2023-02-02T14:04:19.000Z,5.73
2023-02-02T14:05:19.000Z,5.74
2023-02-02T14:06:19.000Z,5.75
2023-02-02T14:07:19.000Z,5.77
2023-02-02T14:08:19.000Z,5.82
2023-02-02T14:09:19.000Z,5.86
2023-02-02T14:10:19.000Z,5.85
2023-02-02T14:11:19.000Z,5.85
2023-02-02T14:12:19.000Z,5.86
2023-02-02T14:13:19.000Z,5.88
2023-02-02T14:14:19.000Z,5.88
2023-02-02T14:15:19.000Z,5.89
2023-02-02T14:16:19.000Z,5.93
2023-02-02T14:17:19.000Z,5.91
2023-02-02T14:18:19.000Z,5.93
2023-02-02T14:19:19.000Z,5.93
2023-02-02T14:20:19.000Z,5.95
2023-02-02T14:21:19.000Z,5.95
2023-02-02T14:22:19.000Z,6.00
2023-02-02T14:23:19.000Z,6.06
2023-02-02T14:24:19.000Z,6.09
2023-02-02T14:25:19.000Z,6.11
2023-02-02T14:26:19.000Z,6.16
2023-02-02T14:27:19.000Z,6.14
2023-02-02T14:28:19.000Z,6.19
2023-02-02T14:29:19.000Z,6.25
2023-02-02T14:30:19.000Z,6.30
2023-02-02T14:31:19.000Z,6.29
2023-02-02T14:32:19.000Z,6.35
2023-02-02T14:33:19.000Z,6.35
2023-02-02T14:34:19.000Z,6.35
2023-02-02T14:35:20.000Z,6.32
2023-02-02T14:36:20.000Z,6.33
2023-02-02T14:37:20.000Z,6.30
2023-02-02T14:38:20.000Z,6.33
2023-02-02T14:39:20.000Z,6.36
2023-02-02T14:40:20.000Z,6.33
2023-02-02T14:41:20.000Z,6.33
2023-02-02T14:42:20.000Z,6.36
2023-02-02T14:43:20.000Z,6.38
2023-02-02T14:44:20.000Z,6.35
2023-02-02T15:17:49.000Z,5.89
2023-02-02T15:17:49.000Z,5.91
2023-02-02T15:18:49.000Z,5.91
2023-02-02T15:19:49.000Z,5.95
2023-02-02T15:20:49.000Z,5.91
2023-02-02T15:21:49.000Z,5.92
2023-02-02T15:22:49.000Z,5.92
2023-02-02T15:23:49.000Z,5.91
2023-02-02T15:24:49.000Z,5.93
2023-02-02T15:25:49.000Z,5.92
2023-02-02T15:26:49.000Z,5.88
2023-02-02T15:27:48.000Z,5.89
2023-02-02T15:28:48.000Z,5.89
2023-02-02T15:29:48.000Z,5.86
2023-02-02T15:30:48.000Z,5.88
2023-02-02T15:31:48.000Z,5.85
2023-02-02T15:32:48.000Z,5.86
2023-02-02T15:33:48.000Z,5.81
2023-02-02T15:34:48.000Z,5.77
2023-02-02T15:35:48.000Z,5.75
2023-02-02T15:43:06.000Z,5.40
2023-02-02T15:43:06.000Z,5.35
2023-02-02T15:44:06.000Z,5.28
2023-02-02T15:45:06.000Z,5.22
2023-02-02T15:46:06.000Z,5.14
2023-02-02T15:54:24.000Z,4.89
2023-02-02T15:54:24.000Z,4.94
2023-02-02T15:55:24.000Z,4.86
2023-02-02T15:56:24.000Z,4.80
2023-02-02T15:57:24.000Z,4.80
2023-02-02T15:58:24.000Z,4.77
2023-02-02T15:59:24.000Z,4.69
2023-02-02T16:00:24.000Z,4.69
2023-02-02T16:01:24.000Z,4.64
2023-02-02T16:02:24.000Z,4.61
2023-02-02T16:03:24.000Z,4.58
2023-02-02T16:04:24.000Z,4.54
2023-02-02T16:05:24.000Z,4.55
2023-02-02T16:06:24.000Z,4.52
2023-02-02T16:07:24.000Z,4.50
2023-02-02T16:08:24.000Z,4.50
2023-02-02T16:09:24.000Z,4.44
2023-02-02T16:10:24.000Z,4.42
2023-02-02T16:11:24.000Z,4.39
2023-02-02T16:12:24.000Z,4.39
2023-02-02T16:13:24.000Z,4.36
2023-02-02T16:14:24.000Z,4.39
2023-02-02T16:15:24.000Z,4.37
2023-02-02T16:16:24.000Z,4.34
2023-02-02T16:23:41.000Z,4.34
2023-02-02T16:23:41.000Z,4.33
2023-02-02T16:24:41.000Z,4.36
2023-02-02T16:25:41.000Z,4.39
2023-02-02T16:26:41.000Z,4.37
2023-02-02T16:27:41.000Z,4.37
2023-02-02T16:28:41.000Z,4.39
2023-02-02T16:29:41.000Z,4.39
2023-02-02T16:30:41.000Z,4.40
2023-02-02T16:31:41.000Z,4.40
2023-02-02T16:32:41.000Z,4.42
2023-02-02T16:33:41.000Z,4.42
2023-02-02T16:34:41.000Z,4.44
2023-02-02T16:35:41.000Z,4.43
2023-02-02T16:36:41.000Z,4.44
2023-02-02T16:37:41.000Z,4.47
2023-02-02T16:38:41.000Z,4.46
2023-02-02T16:39:41.000Z,4.46
2023-02-02T16:40:41.000Z,4.46
2023-02-02T16:41:41.000Z,4.46
2023-02-02T16:42:41.000Z,4.47
2023-02-02T16:43:41.000Z,4.46
2023-02-02T16:44:41.000Z,4.46
2023-02-02T16:45:41.000Z,4.46
2023-02-02T16:46:41.000Z,4.42
2023-02-02T16:47:41.000Z,4.43
2023-02-02T16:48:41.000Z,4.44
2023-02-02T16:49:41.000Z,4.39
2023-02-02T16:50:41.000Z,4.36
2023-02-02T16:51:41.000Z,4.37
2023-02-02T16:52:41.000Z,4.32
2023-02-02T16:53:41.000Z,4.25
2023-02-02T16:54:41.000Z,4.24
2023-02-02T16:55:41.000Z,4.16
2023-02-02T16:56:41.000Z,4.16
2023-02-02T16:57:41.000Z,4.14
2023-02-02T16:58:41.000Z,4.15
2023-02-02T16:59:41.000Z,4.10
2023-02-02T17:00:41.000Z,4.10
2023-02-02T17:01:41.000Z,4.08
2023-02-02T17:02:41.000Z,4.08